Terminal Aerodrome Forecast
Issued by NWS Sioux Falls, SD

Home | Current Version | Previous Version | Graphics & Text | Print | Product List | Glossary Off
Versions: 1 2 3 4 5 6 7 8 9 10 11 12 13 14 15 16 17

000
FTUS43 KFSD 171232 AAA
TAFHON
TAF AMD
KHON 171232Z 1713/1812 09004KT 2SM BR SCT250
      TEMPO 1713/1714 1/2SM FG
     FM171400 05007KT P6SM SCT040
     FM180100 09005KT P6SM SCT050
     FM181000 11005KT 5SM BR BKN010=

USA.gov is the U.S. government's official web portal to all federal, state and local government web resources and services.